Time;durP1;ratioP1;P1;durP2;ratioP2;P2;SDS_P1;SDS_P2;PMS_P1;PMS_P2;Temp;Humidity;BMP_temperature;BMP_pressure;BME280_temperature;BME280_humidity;BME280_pressure;Samples;Min_cycle;Max_cycle;Signal;HPM_P1;HPM_P2
2022/10/13 00:01:16;;;;;;;26.00;13.85;;;13.10;99.90;;;;;;5042601;28;20083;-69
2022/10/13 00:03:45;;;;;;;24.80;13.63;;;13.10;99.90;;;;;;5044284;28;20021;-68
2022/10/13 00:06:14;;;;;;;22.95;13.48;;;13.20;99.90;;;;;;5046624;28;20068;-69
2022/10/13 00:08:41;;;;;;;25.80;13.23;;;13.10;99.90;;;;;;5044630;28;20025;-68
2022/10/13 00:11:15;;;;;;;25.83;14.30;;;13.10;99.90;;;;;;5040153;28;20497;-68
2022/10/13 00:13:42;;;;;;;24.75;13.73;;;13.20;99.90;;;;;;5044419;28;20544;-67
2022/10/13 00:16:09;;;;;;;20.58;12.32;;;13.20;99.90;;;;;;5043263;28;20132;-68
2022/10/13 00:18:35;;;;;;;23.85;13.65;;;13.20;99.90;;;;;;5043312;28;20026;-68
2022/10/13 00:21:05;;;;;;;21.73;13.82;;;13.20;99.90;;;;;;5046968;28;20024;-67
2022/10/13 00:23:32;;;;;;;19.60;12.95;;;13.20;99.90;;;;;;5041011;28;20022;-68
2022/10/13 00:26:01;;;;;;;22.02;13.45;;;13.20;99.90;;;;;;5053857;28;20037;-68
2022/10/13 00:28:26;;;;;;;23.55;14.50;;;13.20;99.90;;;;;;5041234;28;20030;-68
2022/10/13 00:30:52;;;;;;;21.88;12.90;;;13.20;99.90;;;;;;5044517;28;20032;-69
2022/10/13 00:33:17;;;;;;;22.73;12.75;;;13.20;99.90;;;;;;5042221;28;20053;-69
2022/10/13 00:35:46;;;;;;;20.10;11.65;;;13.20;99.90;;;;;;5043569;28;20017;-68
2022/10/13 00:38:12;;;;;;;26.42;12.13;;;13.20;99.90;;;;;;5042332;28;20041;-70
2022/10/13 00:40:49;;;;;;;24.02;12.93;;;13.20;99.90;;;;;;5038918;28;20076;-68
2022/10/13 00:43:26;;;;;;;25.58;12.93;;;13.20;99.90;;;;;;5042762;28;20580;-69
2022/10/13 00:45:53;;;;;;;21.38;11.80;;;13.20;99.90;;;;;;5037325;28;20120;-68
2022/10/13 00:48:25;;;;;;;23.40;12.35;;;13.20;99.90;;;;;;5038905;28;20032;-69
2022/10/13 00:50:51;;;;;;;20.75;11.98;;;13.30;99.90;;;;;;5041081;28;20035;-68
2022/10/13 00:53:20;;;;;;;25.60;12.57;;;13.20;99.90;;;;;;5040708;28;20028;-69
2022/10/13 00:55:47;;;;;;;20.63;12.15;;;13.20;99.90;;;;;;5047157;28;20509;-68
2022/10/13 00:58:15;;;;;;;25.33;12.20;;;13.20;99.90;;;;;;5037886;28;20025;-67
2022/10/13 01:00:47;;;;;;;20.85;12.20;;;13.20;99.90;;;;;;5037454;28;20073;-68
2022/10/13 01:03:13;;;;;;;23.77;12.47;;;13.20;99.90;;;;;;5046854;28;20055;-69
2022/10/13 01:05:41;;;;;;;16.85;11.45;;;13.20;99.90;;;;;;5041332;28;20029;-68
2022/10/13 01:08:07;;;;;;;24.98;12.27;;;13.20;99.90;;;;;;5045506;28;20028;-68
2022/10/13 01:10:58;;;;;;;26.17;12.13;;;13.20;99.90;;;;;;5046376;28;20017;-69
2022/10/13 01:13:57;;;;;;;21.40;11.52;;;13.20;99.90;;;;;;5043724;28;20067;-68
2022/10/13 01:16:44;;;;;;;20.88;12.13;;;13.10;99.90;;;;;;5046795;28;20090;-68
2022/10/13 01:19:49;;;;;;;19.88;11.00;;;13.20;99.90;;;;;;5041451;28;20025;-68
2022/10/13 01:22:49;;;;;;;18.92;11.20;;;13.20;99.90;;;;;;5045558;28;20026;-68
2022/10/13 01:25:25;;;;;;;18.13;10.95;;;13.20;99.90;;;;;;5041644;28;20444;-68
2022/10/13 01:28:28;;;;;;;18.23;11.43;;;13.20;99.90;;;;;;5039362;28;20198;-68
2022/10/13 01:31:03;;;;;;;15.95;9.35;;;13.20;99.90;;;;;;5046730;28;20040;-68
2022/10/13 01:33:37;;;;;;;18.50;10.15;;;13.20;99.90;;;;;;5042683;28;20060;-68
2022/10/13 01:36:24;;;;;;;19.08;11.05;;;13.20;99.90;;;;;;5045554;28;20158;-68
2022/10/13 01:39:08;;;;;;;19.17;10.45;;;13.20;99.90;;;;;;5051391;28;20028;-69
2022/10/13 01:41:37;;;;;;;21.65;12.10;;;13.30;99.90;;;;;;5039518;28;20036;-68
2022/10/13 01:44:22;;;;;;;20.60;10.93;;;13.30;99.90;;;;;;5046245;28;20028;-69
2022/10/13 01:46:50;;;;;;;21.67;10.13;;;13.30;99.90;;;;;;5036936;28;20060;-68
2022/10/13 01:49:18;;;;;;;20.60;11.45;;;13.30;99.90;;;;;;5047771;28;20063;-68
2022/10/13 01:51:45;;;;;;;19.98;10.95;;;13.30;99.90;;;;;;5042576;28;20075;-68
2022/10/13 01:54:11;;;;;;;20.15;11.45;;;13.30;99.90;;;;;;5043781;28;20052;-68
2022/10/13 01:56:36;;;;;;;19.98;10.27;;;13.30;99.90;;;;;;5037569;28;20064;-68
2022/10/13 01:59:08;;;;;;;21.08;10.20;;;13.30;99.90;;;;;;5046167;28;20032;-68
2022/10/13 02:01:47;;;;;;;19.33;10.38;;;13.20;99.90;;;;;;5037022;28;20029;-69
2022/10/13 02:04:31;;;;;;;23.38;10.50;;;13.20;99.90;;;;;;5044207;28;20026;-68
2022/10/13 02:07:08;;;;;;;20.75;10.52;;;13.30;99.90;;;;;;5035333;28;20124;-68
2022/10/13 02:10:11;;;;;;;20.40;11.35;;;13.20;99.90;;;;;;5035976;28;20034;-68
2022/10/13 02:12:57;;;;;;;;;;;13.20;99.90;;;;;;5036499;28;20025;-68
2022/10/13 02:15:29;;;;;;;24.70;10.55;;;13.20;99.90;;;;;;5039937;28;19917;-68
2022/10/13 02:17:55;;;;;;;21.70;10.30;;;13.30;99.90;;;;;;5045084;28;20060;-68
2022/10/13 02:20:21;;;;;;;21.10;10.75;;;13.30;99.90;;;;;;5037345;28;20014;-68
2022/10/13 02:22:58;;;;;;;17.88;9.50;;;13.30;99.90;;;;;;5044666;28;20039;-68
2022/10/13 02:25:24;;;;;;;18.42;10.88;;;13.30;99.90;;;;;;5045949;28;20021;-68
2022/10/13 02:27:51;;;;;;;16.92;9.45;;;13.30;99.90;;;;;;5040000;28;20084;-68
2022/10/13 02:30:22;;;;;;;19.35;10.38;;;13.30;99.90;;;;;;5040782;28;20024;-68
2022/10/13 02:32:48;;;;;;;19.70;10.27;;;13.30;99.90;;;;;;5039488;28;20083;-69
2022/10/13 02:35:13;;;;;;;21.73;10.57;;;13.30;99.90;;;;;;5039947;28;20378;-68
2022/10/13 02:37:39;;;;;;;19.13;10.43;;;13.30;99.90;;;;;;5049512;28;20509;-68
2022/10/13 02:40:05;;;;;;;21.95;10.18;;;13.30;99.90;;;;;;5042511;28;20033;-68
2022/10/13 02:42:31;;;;;;;19.58;11.15;;;13.30;99.90;;;;;;5048206;28;20029;-68
2022/10/13 02:44:56;;;;;;;21.27;11.88;;;13.30;99.90;;;;;;5045565;28;20029;-68
2022/10/13 02:47:22;;;;;;;21.63;11.32;;;13.30;99.90;;;;;;5042970;28;20128;-69
2022/10/13 02:49:47;;;;;;;23.17;11.70;;;13.30;99.90;;;;;;5039805;28;20343;-68
2022/10/13 02:52:13;;;;;;;21.52;12.05;;;13.30;99.90;;;;;;5041079;28;20021;-68
2022/10/13 02:54:38;;;;;;;20.15;12.25;;;13.30;99.90;;;;;;5049152;28;20029;-68
2022/10/13 02:57:04;;;;;;;18.95;11.23;;;13.30;99.90;;;;;;5039215;28;20026;-68
2022/10/13 02:59:30;;;;;;;22.92;11.98;;;13.40;99.90;;;;;;5051028;28;20103;-68
2022/10/13 03:01:55;;;;;;;17.70;10.07;;;13.40;99.90;;;;;;5044038;28;20037;-68
2022/10/13 03:04:21;;;;;;;21.63;10.93;;;13.40;99.90;;;;;;5047532;28;20044;-68
2022/10/13 03:06:46;;;;;;;19.25;12.05;;;13.30;99.90;;;;;;5045945;28;20045;-68
2022/10/13 03:09:12;;;;;;;23.52;12.13;;;13.40;99.90;;;;;;5044673;28;20485;-68
2022/10/13 03:11:38;;;;;;;17.98;10.77;;;13.40;99.90;;;;;;5044856;28;20032;-68
2022/10/13 03:14:03;;;;;;;20.08;12.40;;;13.40;99.90;;;;;;5047156;28;20040;-68
2022/10/13 03:16:29;;;;;;;23.52;13.40;;;13.40;99.90;;;;;;5039258;28;20121;-68
2022/10/13 03:18:55;;;;;;;19.50;10.48;;;13.40;99.90;;;;;;5041109;28;20363;-69
2022/10/13 03:21:20;;;;;;;23.05;11.23;;;13.40;99.90;;;;;;5040624;28;20025;-68
2022/10/13 03:23:46;;;;;;;19.58;10.85;;;13.40;99.90;;;;;;5045175;28;20025;-68
2022/10/13 03:26:11;;;;;;;20.23;11.77;;;13.40;99.90;;;;;;5040778;28;20083;-68
2022/10/13 03:28:37;;;;;;;26.30;12.68;;;13.40;99.90;;;;;;5040632;28;20052;-68
2022/10/13 03:31:07;;;;;;;19.52;11.75;;;13.40;99.90;;;;;;5041568;28;20053;-67
2022/10/13 03:33:33;;;;;;;20.80;12.55;;;13.40;99.90;;;;;;5047888;28;20021;-68
2022/10/13 03:36:00;;;;;;;25.70;11.40;;;13.40;99.90;;;;;;5047464;28;20423;-68
2022/10/13 03:38:27;;;;;;;22.25;10.77;;;13.40;99.90;;;;;;5038634;28;20033;-69
2022/10/13 03:40:52;;;;;;;17.92;10.07;;;13.40;99.90;;;;;;5043246;28;20036;-68
2022/10/13 03:43:18;;;;;;;24.25;11.88;;;13.30;99.90;;;;;;5045850;28;20025;-68
2022/10/13 03:45:44;;;;;;;21.25;11.40;;;13.40;99.90;;;;;;5040932;28;20026;-68
2022/10/13 03:48:09;;;;;;;21.83;11.52;;;13.40;99.90;;;;;;5040282;28;20033;-68
2022/10/13 03:50:36;;;;;;;22.30;11.38;;;13.40;99.90;;;;;;5042471;28;20478;-69
2022/10/13 03:53:02;;;;;;;22.65;12.02;;;13.40;99.90;;;;;;5042672;28;20033;-68
2022/10/13 03:55:27;;;;;;;19.80;11.82;;;13.40;99.90;;;;;;5046100;28;20048;-69
2022/10/13 03:57:53;;;;;;;17.67;11.23;;;13.40;99.90;;;;;;5044406;28;20052;-68
2022/10/13 04:00:18;;;;;;;27.95;11.95;;;13.40;99.90;;;;;;5043042;28;20036;-68
2022/10/13 04:02:47;;;;;;;22.08;11.15;;;13.40;99.90;;;;;;5046355;28;20055;-68
2022/10/13 04:05:12;;;;;;;17.45;10.30;;;13.40;99.90;;;;;;5044316;28;20109;-68
2022/10/13 04:07:38;;;;;;;25.85;11.07;;;13.40;99.90;;;;;;5041201;28;20132;-68
2022/10/13 04:10:04;;;;;;;22.00;11.35;;;13.40;99.90;;;;;;5036091;28;20378;-68
2022/10/13 04:12:30;;;;;;;19.67;11.48;;;13.40;99.90;;;;;;5035340;28;20037;-68
2022/10/13 04:14:55;;;;;;;22.65;11.35;;;13.40;99.90;;;;;;5042104;28;20079;-68
2022/10/13 04:17:21;;;;;;;21.17;12.00;;;13.40;99.90;;;;;;5045778;28;20033;-68
2022/10/13 04:19:46;;;;;;;20.80;11.70;;;13.40;99.90;;;;;;5047001;28;20025;-68
2022/10/13 04:22:12;;;;;;;23.00;12.73;;;13.40;99.90;;;;;;5040485;28;20512;-68
2022/10/13 04:24:38;;;;;;;25.33;13.88;;;13.30;99.90;;;;;;5041090;28;20052;-68
2022/10/13 04:27:03;;;;;;;22.85;13.75;;;13.40;99.90;;;;;;5042113;28;20037;-68
2022/10/13 04:29:29;;;;;;;23.95;12.13;;;13.30;99.90;;;;;;5046377;28;20028;-68
2022/10/13 04:31:55;;;;;;;26.67;13.77;;;13.30;99.90;;;;;;5039407;28;20029;-68
2022/10/13 04:34:20;;;;;;;23.45;13.23;;;13.30;99.90;;;;;;5044950;28;20036;-69
2022/10/13 04:36:49;;;;;;;21.95;11.82;;;13.40;99.90;;;;;;5048038;28;20045;-68
2022/10/13 04:39:14;;;;;;;21.08;12.13;;;13.30;99.90;;;;;;5044152;28;20063;-68
2022/10/13 04:41:40;;;;;;;24.95;12.93;;;13.30;99.90;;;;;;5040148;28;20025;-68
2022/10/13 04:44:05;;;;;;;26.73;13.98;;;13.30;99.90;;;;;;5039465;28;20059;-68
2022/10/13 04:46:31;;;;;;;22.63;13.27;;;13.30;99.90;;;;;;5043957;28;20044;-68
2022/10/13 04:48:56;;;;;;;25.48;14.27;;;13.30;99.90;;;;;;5047114;28;20466;-68
2022/10/13 04:51:24;;;;;;;24.85;13.50;;;13.20;99.90;;;;;;5044464;28;20038;-68
2022/10/13 04:53:57;;;;;;;28.38;14.25;;;13.20;99.90;;;;;;5046232;28;20071;-68
2022/10/13 04:56:24;;;;;;;24.85;14.45;;;13.20;99.90;;;;;;5039062;28;20493;-69
2022/10/13 04:58:50;;;;;;;28.45;14.50;;;13.20;99.90;;;;;;5045508;28;20067;-68
2022/10/13 05:01:19;;;;;;;25.70;14.40;;;13.20;99.90;;;;;;5044870;28;20143;-68
2022/10/13 05:03:44;;;;;;;24.02;14.27;;;13.20;99.90;;;;;;5043326;28;20048;-68
2022/10/13 05:06:21;;;;;;;23.15;13.70;;;13.20;99.90;;;;;;5039969;28;20397;-69
2022/10/13 05:08:47;;;;;;;24.13;13.25;;;13.20;99.90;;;;;;5046698;28;20075;-68
2022/10/13 05:11:13;;;;;;;20.73;14.02;;;13.30;99.90;;;;;;5038385;28;20033;-68
2022/10/13 05:13:39;;;;;;;23.02;13.10;;;13.30;99.90;;;;;;5042011;28;20029;-68
2022/10/13 05:16:07;;;;;;;27.58;14.52;;;13.30;99.90;;;;;;5044997;28;20509;-68
2022/10/13 05:18:33;;;;;;;25.83;14.55;;;13.30;99.90;;;;;;5042245;28;20129;-68
2022/10/13 05:21:06;;;;;;;24.98;14.20;;;13.30;99.90;;;;;;5048826;28;20100;-68
2022/10/13 05:23:32;;;;;;;27.92;14.93;;;13.30;99.90;;;;;;5040076;28;20033;-68
2022/10/13 05:26:01;;;;;;;23.52;14.55;;;13.30;99.90;;;;;;5037442;28;20101;-68
2022/10/13 05:28:27;;;;;;;29.25;15.15;;;13.40;99.90;;;;;;5042195;28;20548;-68
2022/10/13 05:30:53;;;;;;;21.15;12.60;;;13.40;99.90;;;;;;5043387;28;20021;-68
2022/10/13 05:33:18;;;;;;;24.45;13.95;;;13.40;99.90;;;;;;5037946;28;20018;-68
2022/10/13 05:35:44;;;;;;;25.27;14.15;;;13.50;99.90;;;;;;5044310;28;20105;-68
2022/10/13 05:38:09;;;;;;;27.30;15.13;;;13.50;99.90;;;;;;5041914;28;20116;-68
2022/10/13 05:40:35;;;;;;;21.13;14.05;;;13.40;99.90;;;;;;5038592;28;20055;-68
2022/10/13 05:43:01;;;;;;;27.75;14.65;;;13.50;99.90;;;;;;5041348;28;20428;-68
2022/10/13 05:45:31;;;;;;;23.25;12.90;;;13.40;99.90;;;;;;5042352;28;20116;-68
2022/10/13 05:47:57;;;;;;;29.02;15.88;;;13.50;99.90;;;;;;5037584;28;20152;-68
2022/10/13 05:50:23;;;;;;;26.20;13.52;;;13.50;99.90;;;;;;5043103;28;20045;-68
2022/10/13 05:52:49;;;;;;;28.77;15.20;;;13.50;99.90;;;;;;5040722;28;20037;-69
2022/10/13 05:55:16;;;;;;;26.00;13.90;;;13.50;99.90;;;;;;5050332;28;20025;-68
2022/10/13 05:57:48;;;;;;;25.08;15.25;;;13.60;99.90;;;;;;5041522;28;20029;-68
2022/10/13 06:00:16;;;;;;;30.20;16.40;;;13.60;99.90;;;;;;5038854;28;20029;-68
2022/10/13 06:03:10;;;;;;;20.17;13.20;;;13.60;99.90;;;;;;5057548;28;20025;-68
2022/10/13 06:05:36;;;;;;;29.73;14.43;;;13.50;99.90;;;;;;5044101;28;20025;-68
2022/10/13 06:08:02;;;;;;;18.08;10.13;;;13.50;99.90;;;;;;5036284;28;20347;-69
2022/10/13 06:10:28;;;;;;;25.67;15.00;;;13.50;99.90;;;;;;5043814;28;20025;-68
2022/10/13 06:12:54;;;;;;;28.83;15.38;;;13.50;99.90;;;;;;5039545;28;20536;-68
2022/10/13 06:15:19;;;;;;;28.70;15.48;;;13.50;99.90;;;;;;5043987;28;20045;-68
2022/10/13 06:17:45;;;;;;;27.92;16.08;;;13.50;99.90;;;;;;5043428;28;20025;-68
2022/10/13 06:20:10;;;;;;;19.90;12.25;;;13.50;99.90;;;;;;5041432;28;20041;-68
2022/10/13 06:22:37;;;;;;;26.02;14.50;;;13.50;99.90;;;;;;5043281;28;20097;-68
2022/10/13 06:25:04;;;;;;;31.33;15.90;;;13.60;99.90;;;;;;5043512;28;20028;-68
2022/10/13 06:27:31;;;;;;;28.92;15.25;;;13.60;99.90;;;;;;5042361;28;20394;-69
2022/10/13 06:29:57;;;;;;;29.02;15.63;;;13.50;99.90;;;;;;5033601;28;20026;-68
2022/10/13 06:32:23;;;;;;;28.10;15.75;;;13.50;99.90;;;;;;5036512;28;20037;-68
2022/10/13 06:34:48;;;;;;;23.60;15.45;;;13.60;99.90;;;;;;5047798;28;20055;-68
2022/10/13 06:37:14;;;;;;;26.65;14.80;;;13.60;99.90;;;;;;5040283;28;20092;-68
2022/10/13 06:39:39;;;;;;;24.88;13.85;;;13.60;99.90;;;;;;5044876;28;20041;-68
2022/10/13 06:42:05;;;;;;;26.85;14.57;;;13.60;99.90;;;;;;5043533;28;20129;-68
2022/10/13 06:44:31;;;;;;;24.25;15.80;;;13.60;99.90;;;;;;5036532;28;20088;-68
2022/10/13 06:46:57;;;;;;;33.88;15.48;;;13.60;99.90;;;;;;5041507;28;20439;-68
2022/10/13 06:49:23;;;;;;;66.38;17.38;;;13.60;99.90;;;;;;5037065;28;20113;-69
2022/10/13 06:51:49;;;;;;;32.15;15.00;;;13.60;99.90;;;;;;5042770;28;20029;-68
2022/10/13 06:54:15;;;;;;;22.40;13.90;;;13.60;99.90;;;;;;5032975;28;20061;-69
2022/10/13 06:56:41;;;;;;;26.48;14.98;;;13.60;99.90;;;;;;5034151;28;20029;-68
2022/10/13 06:59:07;;;;;;;33.28;15.40;;;13.60;99.90;;;;;;5034146;28;20068;-69
2022/10/13 07:01:32;;;;;;;33.10;15.05;;;13.60;99.90;;;;;;5046218;28;20059;-68
2022/10/13 07:03:58;;;;;;;28.13;16.02;;;13.70;99.90;;;;;;5042027;28;20030;-68
2022/10/13 07:06:23;;;;;;;30.45;16.73;;;13.70;99.90;;;;;;5044791;28;20048;-68
2022/10/13 07:08:49;;;;;;;33.22;16.75;;;13.70;99.90;;;;;;5034748;28;20089;-68
2022/10/13 07:11:15;;;;;;;37.65;16.20;;;13.80;99.90;;;;;;5037800;28;20021;-69
2022/10/13 07:13:41;;;;;;;28.45;15.95;;;13.80;99.90;;;;;;5042470;28;20032;-69
2022/10/13 07:16:08;;;;;;;28.73;15.02;;;13.80;99.90;;;;;;5040994;28;20029;-70
2022/10/13 07:18:34;;;;;;;27.63;15.48;;;13.80;99.90;;;;;;5041466;28;20466;-70
2022/10/13 07:21:00;;;;;;;27.23;15.27;;;13.80;99.90;;;;;;5056462;28;20025;-69
2022/10/13 07:23:26;;;;;;;31.90;15.13;;;13.80;99.90;;;;;;5039494;28;20112;-69
2022/10/13 07:25:52;;;;;;;32.10;16.35;;;13.80;99.90;;;;;;5042668;28;20036;-69
2022/10/13 07:28:18;;;;;;;34.08;16.38;;;13.80;99.90;;;;;;5043141;28;20033;-70
2022/10/13 07:30:43;;;;;;;27.45;15.50;;;13.80;99.90;;;;;;5044280;28;20032;-70
2022/10/13 07:33:10;;;;;;;23.70;14.95;;;13.90;99.90;;;;;;5048580;28;20461;-70
2022/10/13 07:35:38;;;;;;;26.13;14.80;;;13.90;99.90;;;;;;5044495;28;20029;-70
2022/10/13 07:38:05;;;;;;;26.42;14.55;;;14.00;99.90;;;;;;5040830;28;20375;-70
2022/10/13 07:40:30;;;;;;;26.60;15.05;;;14.00;99.90;;;;;;5047215;28;20474;-70
2022/10/13 07:42:56;;;;;;;29.02;15.45;;;14.10;99.90;;;;;;5052705;28;20028;-70
2022/10/13 07:45:23;;;;;;;28.58;15.88;;;14.10;99.90;;;;;;5045456;28;20140;-69
2022/10/13 07:47:48;;;;;;;29.27;14.93;;;14.20;99.90;;;;;;5043118;28;20041;-70
2022/10/13 07:50:14;;;;;;;24.90;14.55;;;14.20;99.90;;;;;;5044217;28;20055;-70
2022/10/13 07:52:40;;;;;;;29.45;14.95;;;14.20;99.90;;;;;;5043641;28;20087;-70
2022/10/13 07:55:06;;;;;;;26.10;14.70;;;14.30;99.90;;;;;;5057095;28;20076;-70
2022/10/13 07:57:32;;;;;;;21.55;14.02;;;14.30;99.90;;;;;;5039086;28;20493;-70
2022/10/13 07:59:57;;;;;;;25.48;13.75;;;14.40;99.90;;;;;;5048284;28;20033;-70
2022/10/13 08:02:23;;;;;;;24.58;13.93;;;14.40;99.90;;;;;;5045426;28;20057;-70
2022/10/13 08:04:49;;;;;;;22.83;13.88;;;14.40;99.90;;;;;;5048149;28;20496;-70
2022/10/13 08:07:15;;;;;;;23.90;13.00;;;14.50;99.90;;;;;;5043825;28;20521;-70
2022/10/13 08:09:41;;;;;;;22.52;12.73;;;14.50;99.90;;;;;;5043594;28;20037;-70
2022/10/13 08:12:07;;;;;;;24.00;12.95;;;14.50;99.90;;;;;;5045256;28;20375;-70
2022/10/13 08:14:32;;;;;;;22.27;12.98;;;14.50;99.90;;;;;;5038523;28;20064;-70
2022/10/13 08:17:00;;;;;;;46.08;14.70;;;14.50;99.90;;;;;;5045720;28;20413;-70
2022/10/13 08:19:27;;;;;;;32.45;14.27;;;14.50;99.90;;;;;;5035961;28;20017;-70
2022/10/13 08:21:53;;;;;;;20.92;12.43;;;14.60;99.90;;;;;;5042976;28;20024;-71
2022/10/13 08:24:21;;;;;;;24.75;13.40;;;14.60;99.90;;;;;;5038577;28;20352;-71
2022/10/13 08:26:47;;;;;;;26.92;13.38;;;14.70;99.90;;;;;;5038120;28;20036;-69
2022/10/13 08:29:13;;;;;;;21.67;12.85;;;14.70;99.90;;;;;;5039288;28;20378;-70
2022/10/13 08:31:40;;;;;;;24.48;12.65;;;14.80;99.90;;;;;;5043161;28;20470;-71
2022/10/13 08:34:06;;;;;;;22.45;13.55;;;14.80;99.90;;;;;;5036612;28;20378;-71
2022/10/13 08:36:31;;;;;;;22.98;13.27;;;14.80;99.90;;;;;;5037827;28;20033;-70
2022/10/13 08:38:57;;;;;;;26.33;13.50;;;14.90;99.90;;;;;;5040513;28;20080;-71
2022/10/13 08:41:32;;;;;;;20.40;11.57;;;15.00;99.90;;;;;;5036670;28;20036;-69
2022/10/13 08:44:09;;;;;;;20.92;12.23;;;15.10;99.90;;;;;;5047990;28;20538;-70
2022/10/13 08:47:00;;;;;;;27.10;12.43;;;15.20;99.90;;;;;;5042902;28;20490;-70
2022/10/13 08:49:27;;;;;;;21.88;12.57;;;15.20;99.90;;;;;;5022331;28;20439;-70
2022/10/13 08:51:53;;;;;;;28.17;12.65;;;15.20;99.90;;;;;;5044620;28;20028;-70
2022/10/13 08:54:22;;;;;;;22.45;11.15;;;15.10;99.90;;;;;;5039290;28;20478;-70
2022/10/13 08:56:49;;;;;;;18.27;12.57;;;15.20;99.90;;;;;;5038165;28;20029;-70
2022/10/13 08:59:16;;;;;;;24.63;12.80;;;15.20;99.90;;;;;;5046033;28;20036;-70
2022/10/13 09:01:47;;;;;;;22.75;11.82;;;15.20;99.90;;;;;;5045582;28;20507;-70
2022/10/13 09:04:28;;;;;;;23.98;12.18;;;15.30;99.90;;;;;;5038372;28;20473;-70
2022/10/13 09:07:01;;;;;;;25.40;12.68;;;15.30;99.90;;;;;;5035731;28;20064;-70
2022/10/13 09:09:26;;;;;;;25.45;12.25;;;15.30;99.90;;;;;;5037975;28;20021;-69
2022/10/13 09:11:52;;;;;;;24.48;11.80;;;15.40;99.90;;;;;;5036957;28;20030;-70
2022/10/13 09:14:36;;;;;;;20.90;12.15;;;15.30;99.90;;;;;;5038642;28;20177;-70
2022/10/13 09:17:18;;;;;;;18.70;12.00;;;15.30;99.90;;;;;;5038214;28;20417;-70
2022/10/13 09:19:56;;;;;;;21.42;11.77;;;15.40;99.90;;;;;;5039561;28;20021;-70
2022/10/13 09:22:23;;;;;;;24.35;11.90;;;15.40;99.90;;;;;;5035957;28;20065;-70
2022/10/13 09:25:15;;;;;;;18.83;11.07;;;15.50;99.90;;;;;;5035766;28;20024;-70
2022/10/13 09:27:48;;;;;;;25.20;10.88;;;15.50;99.90;;;;;;5036025;28;20199;-70
2022/10/13 09:30:25;;;;;;;17.58;11.48;;;15.50;99.90;;;;;;5040737;28;20021;-70
2022/10/13 09:32:57;;;;;;;25.65;12.65;;;15.50;99.90;;;;;;5040497;28;20025;-70
2022/10/13 09:35:23;;;;;;;;;;;15.50;99.90;;;;;;5040000;28;20025;-70
2022/10/13 09:38:08;;;;;;;21.33;11.68;;;15.60;99.90;;;;;;5044804;28;19909;-70
2022/10/13 09:40:35;;;;;;;27.67;12.65;;;15.60;99.90;;;;;;5036362;28;20067;-70
2022/10/13 09:43:05;;;;;;;18.60;10.95;;;15.60;99.90;;;;;;5035591;28;20038;-70
2022/10/13 09:45:30;;;;;;;22.98;10.63;;;15.60;99.90;;;;;;5047142;28;20029;-70
2022/10/13 09:48:03;;;;;;;17.15;10.35;;;15.50;99.90;;;;;;5035998;28;20090;-70
2022/10/13 09:50:30;;;;;;;;;;;15.50;99.90;;;;;;5048511;28;20565;-69
2022/10/13 09:53:31;;;;;;;23.98;11.82;;;15.60;99.90;;;;;;5044988;28;19913;-70
2022/10/13 09:56:21;;;;;;;19.75;10.55;;;15.60;99.90;;;;;;5019941;28;20030;-70
2022/10/13 09:58:54;;;;;;;18.95;10.00;;;15.60;99.90;;;;;;5040543;28;20033;-70
2022/10/13 10:01:24;;;;;;;17.55;10.38;;;15.70;99.90;;;;;;5048990;28;20020;-70
2022/10/13 10:03:50;;;;;;;17.58;10.13;;;15.70;99.90;;;;;;5041239;28;20485;-70
2022/10/13 10:06:17;;;;;;;15.70;9.35;;;15.70;99.90;;;;;;5041584;28;20056;-70
2022/10/13 10:09:02;;;;;;;17.80;8.88;;;15.80;99.90;;;;;;5048759;28;20035;-70
2022/10/13 10:11:40;;;;;;;15.75;9.20;;;15.80;99.90;;;;;;5041246;28;20060;-71
2022/10/13 10:14:29;;;;;;;17.65;10.02;;;15.90;99.90;;;;;;5041834;28;20033;-70
2022/10/13 10:17:14;;;;;;;18.65;9.27;;;15.90;99.90;;;;;;5040209;28;20043;-70
2022/10/13 10:19:54;;;;;;;15.70;8.55;;;15.80;99.90;;;;;;5041769;28;20512;-70
2022/10/13 10:22:54;;;;;;;14.60;8.77;;;15.80;99.90;;;;;;5042993;28;20024;-70
2022/10/13 10:25:41;;;;;;;21.20;9.20;;;15.80;99.90;;;;;;5040249;28;20557;-71
2022/10/13 10:28:21;;;;;;;17.52;9.55;;;15.70;99.90;;;;;;5039628;28;20041;-70
2022/10/13 10:31:31;;;;;;;17.70;9.55;;;15.70;99.90;;;;;;5042374;28;20026;-70
2022/10/13 10:34:17;;;;;;;18.58;9.25;;;15.70;99.90;;;;;;5038024;28;20081;-70
2022/10/13 10:36:51;;;;;;;19.92;9.73;;;15.80;99.90;;;;;;5038668;28;20103;-70
2022/10/13 10:39:29;;;;;;;19.08;9.75;;;15.80;99.90;;;;;;5033830;28;20119;-70
2022/10/13 10:42:16;;;;;;;16.20;9.20;;;15.80;99.90;;;;;;5042449;28;20118;-70
2022/10/13 10:44:46;;;;;;;21.73;9.20;;;15.70;99.90;;;;;;5041530;28;20018;-70
2022/10/13 10:47:35;;;;;;;16.95;8.77;;;15.80;99.90;;;;;;5046748;28;20401;-70
2022/10/13 10:50:04;;;;;;;15.25;9.15;;;15.70;99.90;;;;;;5038009;28;20033;-70
2022/10/13 10:52:57;;;;;;;18.40;8.35;;;15.70;99.90;;;;;;5038116;28;20413;-70
2022/10/13 10:55:31;;;;;;;15.05;9.35;;;15.70;99.90;;;;;;5040191;28;20029;-70
2022/10/13 10:58:02;;;;;;;17.65;9.00;;;15.70;99.90;;;;;;5037533;28;20053;-70
2022/10/13 11:00:30;;;;;;;12.93;8.82;;;15.70;99.90;;;;;;5043904;28;20087;-70
2022/10/13 11:03:18;;;;;;;15.32;9.73;;;15.80;99.90;;;;;;5038099;28;20108;-69
2022/10/13 11:05:56;;;;;;;16.23;8.65;;;15.70;99.90;;;;;;5044134;28;20032;-70
2022/10/13 11:08:49;;;;;;;14.25;8.45;;;15.80;99.90;;;;;;5043358;28;20482;-70
2022/10/13 11:11:27;;;;;;;12.48;8.40;;;15.80;99.90;;;;;;5041324;28;20033;-70
2022/10/13 11:13:59;;;;;;;19.60;8.45;;;15.90;99.90;;;;;;5045033;28;20033;-70
2022/10/13 11:16:37;;;;;;;20.70;9.07;;;15.90;99.90;;;;;;5045690;28;20798;-70
2022/10/13 11:19:05;;;;;;;17.27;9.07;;;16.00;99.90;;;;;;5044614;28;20107;-71
2022/10/13 11:21:52;;;;;;;16.15;9.05;;;15.90;99.90;;;;;;5043582;28;20116;-70
2022/10/13 11:24:37;;;;;;;17.02;10.50;;;15.90;99.90;;;;;;5061646;28;20112;-70
2022/10/13 11:27:15;;;;;;;44.30;11.23;;;15.90;99.90;;;;;;5042979;28;20037;-69
2022/10/13 11:29:47;;;;;;;17.02;9.30;;;15.80;99.90;;;;;;5041865;28;20511;-71
2022/10/13 11:35:08;;;;;;;17.55;9.43;;;15.80;99.90;;;;;;5046260;28;20029;-71
2022/10/13 11:37:56;;;;;;;19.83;9.98;;;15.80;99.90;;;;;;5045920;28;20111;-71
2022/10/13 11:40:24;;;;;;;17.95;9.60;;;15.80;99.90;;;;;;5040387;28;20070;-71
2022/10/13 11:43:08;;;;;;;20.63;9.98;;;15.80;99.90;;;;;;5048161;28;20063;-71
2022/10/13 11:45:40;;;;;;;20.40;9.65;;;15.80;99.90;;;;;;5040240;28;20033;-70
2022/10/13 11:48:24;;;;;;;16.30;10.40;;;15.90;99.90;;;;;;5039796;28;20037;-70
2022/10/13 11:51:22;;;;;;;18.17;10.00;;;15.90;99.90;;;;;;5050982;28;20060;-71
2022/10/13 11:54:14;;;;;;;16.42;9.40;;;16.00;99.90;;;;;;5047056;28;20029;-71
2022/10/13 11:56:54;;;;;;;16.92;10.57;;;16.10;99.90;;;;;;5048032;28;20040;-71
2022/10/13 11:59:22;;;;;;;17.00;11.27;;;16.00;99.90;;;;;;5041132;28;20079;-71
2022/10/13 12:02:12;;;;;;;22.30;10.35;;;16.00;99.90;;;;;;5049896;28;20027;-71
2022/10/13 12:04:39;;;;;;;20.02;11.15;;;16.00;99.90;;;;;;5044918;28;20566;-71
2022/10/13 12:07:08;;;;;;;19.70;10.10;;;16.00;99.90;;;;;;5041637;28;20084;-71
2022/10/13 12:09:58;;;;;;;19.27;9.98;;;16.00;99.90;;;;;;5039312;28;20371;-71
2022/10/13 12:12:24;;;;;;;15.02;9.85;;;16.10;99.90;;;;;;5036723;28;20069;-71
2022/10/13 12:14:55;;;;;;;15.82;10.13;;;16.10;99.90;;;;;;5044134;28;20044;-71
2022/10/13 12:17:30;;;;;;;18.05;9.73;;;16.10;99.90;;;;;;5045949;28;20041;-70
2022/10/13 12:19:58;;;;;;;17.13;11.20;;;15.90;99.90;;;;;;5039283;28;20061;-70
2022/10/13 12:22:24;;;;;;;17.98;11.32;;;16.00;99.90;;;;;;5047501;28;20059;-70
2022/10/13 12:25:05;;;;;;;20.45;10.25;;;16.00;99.90;;;;;;5037540;28;20052;-71
2022/10/13 12:27:41;;;;;;;17.88;10.57;;;16.00;99.90;;;;;;5044321;28;20107;-70
2022/10/13 12:30:29;;;;;;;19.02;9.38;;;16.20;99.90;;;;;;5045761;28;20369;-70
2022/10/13 12:32:58;;;;;;;16.33;10.05;;;16.10;99.90;;;;;;5039002;28;20029;-70
2022/10/13 12:35:27;;;;;;;16.70;10.32;;;16.20;99.90;;;;;;5045147;28;20474;-69
2022/10/13 12:37:53;;;;;;;21.02;11.65;;;16.20;99.90;;;;;;5038015;28;20033;-70
2022/10/13 12:40:20;;;;;;;22.10;11.65;;;16.30;99.90;;;;;;5045972;28;20366;-70
2022/10/13 12:42:47;;;;;;;19.88;11.20;;;16.30;99.90;;;;;;5045342;28;20022;-70
2022/10/13 12:45:19;;;;;;;17.85;11.45;;;16.30;99.90;;;;;;5047807;28;20025;-70
2022/10/13 12:47:48;;;;;;;19.77;12.88;;;16.20;99.90;;;;;;5041428;28;20057;-70
2022/10/13 12:50:26;;;;;;;21.75;12.98;;;16.20;99.90;;;;;;5055368;28;20021;-71